createdAt,value
2023-04-08T00:01:08.975Z,101289.88
2023-04-08T00:03:42.972Z,101297.63
2023-04-08T00:06:37.065Z,101289.44
2023-04-08T00:09:32.556Z,101294.03
2023-04-08T00:12:09.836Z,101293.22
2023-04-08T00:14:49.535Z,101294.13
2023-04-08T00:17:21.947Z,101285.06
2023-04-08T00:19:54.569Z,101297.13
2023-04-08T00:22:26.788Z,101305.81
2023-04-08T00:25:10.447Z,101318.56
2023-04-08T00:27:43.207Z,101308.84
2023-04-08T00:30:17.964Z,101303.00
2023-04-08T00:32:52.929Z,101316.84
2023-04-08T00:35:25.905Z,101326.69
2023-04-08T00:37:57.170Z,101327.34
2023-04-08T00:40:36.775Z,101344.06
2023-04-08T00:43:25.591Z,101347.81
2023-04-08T00:45:57.165Z,101348.44
2023-04-08T00:48:36.705Z,101360.88
2023-04-08T00:51:10.658Z,101355.47
2023-04-08T00:53:44.797Z,101365.53
2023-04-08T00:56:16.135Z,101364.72
2023-04-08T00:58:50.326Z,101369.06
2023-04-08T01:01:45.094Z,101362.69
2023-04-08T01:04:36.396Z,101367.75
2023-04-08T01:07:20.989Z,101371.91
2023-04-08T01:09:55.049Z,101372.09
2023-04-08T01:12:34.213Z,101366.88
2023-04-08T01:15:10.107Z,101372.50
2023-04-08T01:17:44.197Z,101383.19
2023-04-08T01:20:17.082Z,101383.09
2023-04-08T01:23:24.184Z,101374.22
2023-04-08T01:25:58.009Z,101383.63
2023-04-08T01:28:34.436Z,101380.06
2023-04-08T01:31:05.627Z,101384.59
2023-04-08T01:33:38.915Z,101392.97
2023-04-08T01:36:12.510Z,101397.16
2023-04-08T01:38:46.576Z,101399.66
2023-04-08T01:41:19.266Z,101396.31
2023-04-08T01:43:51.823Z,101394.31
2023-04-08T01:46:24.172Z,101399.22
2023-04-08T01:48:56.094Z,101404.59
2023-04-08T01:51:28.272Z,101402.19
2023-04-08T01:54:01.543Z,101413.59
2023-04-08T01:56:37.900Z,101403.94
2023-04-08T01:59:15.077Z,101406.09
2023-04-08T02:01:48.602Z,101400.50
2023-04-08T02:04:18.313Z,101398.38
2023-04-08T02:06:49.940Z,101402.41
2023-04-08T02:09:18.727Z,101406.19
2023-04-08T02:11:50.860Z,101410.69
2023-04-08T02:14:24.615Z,101415.69
2023-04-08T02:17:29.786Z,101408.34
2023-04-08T02:20:10.644Z,101410.19
2023-04-08T02:22:44.658Z,101412.97
2023-04-08T02:25:18.108Z,101413.63
2023-04-08T02:27:52.751Z,101408.31
2023-04-08T02:30:26.392Z,101416.16
2023-04-08T02:33:01.630Z,101418.69
2023-04-08T02:35:34.260Z,101411.66
2023-04-08T02:38:04.660Z,101419.75
2023-04-08T02:40:36.605Z,101417.09
2023-04-08T02:43:06.328Z,101419.19
2023-04-08T02:45:45.270Z,101411.69
2023-04-08T02:48:17.534Z,101402.59
2023-04-08T02:50:48.523Z,101395.59
2023-04-08T02:53:18.349Z,101394.53
2023-04-08T02:55:49.428Z,101395.56
2023-04-08T02:58:19.372Z,101395.88
2023-04-08T03:00:50.244Z,101389.88
2023-04-08T03:03:20.821Z,101388.75
2023-04-08T03:05:50.189Z,101389.09
2023-04-08T03:08:22.814Z,101395.59
2023-04-08T03:10:53.914Z,101388.69
2023-04-08T03:13:22.674Z,101398.25
2023-04-08T03:15:52.796Z,101400.03
2023-04-08T03:18:22.961Z,101398.47
2023-04-08T03:20:54.022Z,101407.16
2023-04-08T03:23:24.306Z,101404.97
2023-04-08T03:25:53.566Z,101398.94
2023-04-08T03:28:22.431Z,101401.09
2023-04-08T03:30:52.828Z,101398.25
2023-04-08T03:33:22.350Z,101401.06
2023-04-08T03:35:53.167Z,101396.53
2023-04-08T03:38:22.907Z,101396.84
2023-04-08T03:40:53.141Z,101402.84
2023-04-08T03:43:24.424Z,101399.06
2023-04-08T03:45:54.261Z,101399.31
2023-04-08T03:48:25.324Z,101390.22
2023-04-08T03:50:55.257Z,101389.31
2023-04-08T03:53:24.617Z,101386.06
2023-04-08T03:55:54.650Z,101386.66
2023-04-08T03:58:24.873Z,101382.44
2023-04-08T04:00:55.967Z,101386.94
2023-04-08T04:03:26.508Z,101385.13
2023-04-08T04:06:02.569Z,101381.06
2023-04-08T04:08:34.181Z,101392.03
2023-04-08T04:11:05.020Z,101388.97
2023-04-08T04:13:35.293Z,101401.81
2023-04-08T04:16:11.317Z,101386.59
2023-04-08T04:18:44.695Z,101384.44
2023-04-08T04:21:16.325Z,101386.16
2023-04-08T04:23:48.617Z,101382.00
2023-04-08T04:26:18.525Z,101385.91
2023-04-08T04:28:49.634Z,101382.13
2023-04-08T04:31:26.806Z,101384.22
2023-04-08T04:34:02.088Z,101383.06
2023-04-08T04:36:34.323Z,101379.13
2023-04-08T04:39:06.048Z,101383.41
2023-04-08T04:41:42.465Z,101370.47
2023-04-08T04:44:14.961Z,101376.84
2023-04-08T04:46:47.540Z,101377.97
2023-04-08T04:49:20.956Z,101375.72
2023-04-08T04:51:50.943Z,101383.78
2023-04-08T04:54:22.726Z,101397.66
2023-04-08T04:56:54.194Z,101394.28
2023-04-08T04:59:24.603Z,101397.56
2023-04-08T05:02:02.739Z,101396.84
2023-04-08T05:04:34.377Z,101408.66
2023-04-08T05:07:06.026Z,101407.81
2023-04-08T05:09:35.068Z,101417.19
2023-04-08T05:12:08.714Z,101427.53
2023-04-08T05:14:40.818Z,101440.13
2023-04-08T05:17:10.507Z,101454.34
2023-04-08T05:19:42.448Z,101448.84
2023-04-08T05:22:14.341Z,101464.47
2023-04-08T05:24:46.668Z,101463.16
2023-04-08T05:27:17.479Z,101463.28
2023-04-08T05:29:46.883Z,101465.22
2023-04-08T05:32:21.220Z,101463.03
2023-04-08T05:34:51.005Z,101461.25
2023-04-08T05:37:22.759Z,101454.09
2023-04-08T05:39:53.812Z,101451.44
2023-04-08T05:42:23.298Z,101443.56
2023-04-08T05:44:54.587Z,101439.59
2023-04-08T05:47:26.792Z,101451.44
2023-04-08T05:50:02.985Z,101446.72
2023-04-08T05:52:35.062Z,101445.22
2023-04-08T05:55:08.605Z,101444.59
2023-04-08T05:57:41.879Z,101443.44
2023-04-08T06:00:13.204Z,101461.22
2023-04-08T06:02:45.511Z,101472.34
2023-04-08T06:05:15.318Z,101467.09
2023-04-08T06:07:47.238Z,101466.22
2023-04-08T06:10:19.353Z,101462.25
2023-04-08T06:12:50.848Z,101465.97
2023-04-08T06:15:22.781Z,101468.25
2023-04-08T06:17:53.258Z,101474.00
2023-04-08T06:20:22.965Z,101458.25
2023-04-08T06:22:53.927Z,101456.69
2023-04-08T06:25:24.541Z,101463.03
2023-04-08T06:27:54.142Z,101453.63
2023-04-08T06:30:24.786Z,101455.28
2023-04-08T06:33:18.941Z,101452.97
2023-04-08T06:35:50.367Z,101453.34
2023-04-08T06:38:21.328Z,101455.72
2023-04-08T06:40:53.035Z,101449.38
2023-04-08T06:43:24.739Z,101444.94
2023-04-08T06:45:56.913Z,101443.72
2023-04-08T06:48:34.045Z,101445.06
2023-04-08T06:51:04.921Z,101441.97
2023-04-08T06:53:34.975Z,101439.47
2023-04-08T06:56:06.510Z,101441.66
2023-04-08T06:58:38.687Z,101444.00
2023-04-08T07:01:12.016Z,101444.69
2023-04-08T07:03:43.464Z,101448.94
2023-04-08T07:06:14.448Z,101439.03
2023-04-08T07:08:46.429Z,101447.81
2023-04-08T07:11:18.369Z,101451.38
2023-04-08T07:13:47.676Z,101457.91
2023-04-08T07:16:19.204Z,101464.59
2023-04-08T07:18:53.046Z,101460.72
2023-04-08T07:21:22.825Z,101457.50
2023-04-08T07:23:53.398Z,101452.28
2023-04-08T07:26:23.323Z,101451.81
2023-04-08T07:28:53.964Z,101453.94
2023-04-08T07:31:23.416Z,101458.56
2023-04-08T07:33:55.151Z,101460.47
2023-04-08T07:36:27.246Z,101453.72
2023-04-08T07:39:07.251Z,101453.03
2023-04-08T07:41:42.519Z,101468.75
2023-04-08T07:44:18.107Z,101473.81
2023-04-08T07:46:53.304Z,101484.06
2023-04-08T07:49:23.206Z,101480.81
2023-04-08T07:51:54.423Z,101492.63
2023-04-08T07:54:27.340Z,101492.06
2023-04-08T07:57:06.664Z,101500.19
2023-04-08T07:59:39.223Z,101497.66
2023-04-08T08:02:11.935Z,101505.41
2023-04-08T08:04:43.197Z,101518.03
2023-04-08T08:07:16.639Z,101521.53
2023-04-08T08:09:46.321Z,101512.25
2023-04-08T08:12:15.541Z,101518.44
2023-04-08T08:14:46.582Z,101518.28
2023-04-08T08:17:18.284Z,101510.25
2023-04-08T08:19:47.459Z,101503.47
2023-04-08T08:22:20.491Z,101512.56
2023-04-08T08:24:51.162Z,101518.00
2023-04-08T08:27:22.561Z,101517.06
2023-04-08T08:29:54.698Z,101515.75
2023-04-08T08:32:26.216Z,101511.56
2023-04-08T08:35:02.723Z,101520.84
2023-04-08T08:37:34.960Z,101522.34
2023-04-08T08:40:06.568Z,101528.00
2023-04-08T08:42:38.632Z,101532.09
2023-04-08T08:45:12.988Z,101541.38
2023-04-08T08:47:44.514Z,101531.41
2023-04-08T08:50:14.460Z,101548.66
2023-04-08T08:52:54.857Z,101554.31
2023-04-08T08:55:41.371Z,101551.00
2023-04-08T08:58:15.886Z,101560.56
2023-04-08T09:00:46.225Z,101563.94
2023-04-08T09:03:26.447Z,101561.47
2023-04-08T09:06:05.296Z,101562.75
2023-04-08T09:08:37.172Z,101566.97
2023-04-08T09:11:22.911Z,101566.13
2023-04-08T09:13:54.760Z,101565.13
2023-04-08T09:16:27.520Z,101569.03
2023-04-08T09:19:13.788Z,101567.66
2023-04-08T09:21:44.842Z,101566.25
2023-04-08T09:24:33.947Z,101562.13
2023-04-08T09:27:04.963Z,101570.47
2023-04-08T09:29:40.078Z,101589.91
2023-04-08T09:32:12.836Z,101580.19
2023-04-08T09:34:45.590Z,101582.72
2023-04-08T09:37:14.983Z,101587.28
2023-04-08T09:39:46.542Z,101582.50
2023-04-08T09:42:22.442Z,101578.66
2023-04-08T09:44:54.277Z,101593.94
2023-04-08T09:47:35.083Z,101602.66
2023-04-08T09:50:10.754Z,101611.78
2023-04-08T09:52:57.744Z,101600.44
2023-04-08T09:55:36.445Z,101599.25
2023-04-08T09:58:28.433Z,101595.97
2023-04-08T10:01:02.117Z,101609.59
2023-04-08T10:03:50.951Z,101608.38
2023-04-08T10:06:23.444Z,101608.84
2023-04-08T10:08:54.286Z,101620.59
2023-04-08T10:11:24.213Z,101616.75
2023-04-08T10:13:54.088Z,101616.91
2023-04-08T10:16:34.522Z,101620.59
2023-04-08T10:19:44.762Z,101619.03
2023-04-08T10:22:36.428Z,101623.44
2023-04-08T10:25:19.025Z,101626.47
2023-04-08T10:27:50.504Z,101625.19
2023-04-08T10:30:34.233Z,101619.22
2023-04-08T10:33:18.788Z,101630.06
2023-04-08T10:35:52.630Z,101631.53
2023-04-08T10:38:23.002Z,101637.09
2023-04-08T10:40:53.693Z,101646.56
2023-04-08T10:43:26.084Z,101648.53
2023-04-08T10:45:55.230Z,101655.19
2023-04-08T10:48:42.662Z,101654.75
2023-04-08T10:51:16.676Z,101667.69
2023-04-08T10:53:46.103Z,101672.78
2023-04-08T10:56:21.903Z,101670.47
2023-04-08T10:59:02.787Z,101670.81
2023-04-08T11:01:46.154Z,101672.00
2023-04-08T11:04:24.861Z,101679.88
2023-04-08T11:06:57.026Z,101688.69
2023-04-08T11:09:27.125Z,101694.66
2023-04-08T11:12:04.863Z,101695.88
2023-04-08T11:14:34.921Z,101694.81
2023-04-08T11:17:06.778Z,101697.69
2023-04-08T11:19:41.624Z,101700.34
2023-04-08T11:22:15.126Z,101708.47
2023-04-08T11:24:47.084Z,101705.81
2023-04-08T11:27:19.041Z,101714.41
2023-04-08T11:29:51.492Z,101717.06
2023-04-08T11:32:24.724Z,101719.84
2023-04-08T11:34:55.255Z,101731.56
2023-04-08T11:37:40.365Z,101736.66
2023-04-08T11:40:13.183Z,101741.84
2023-04-08T11:42:46.015Z,101756.72
2023-04-08T11:45:22.842Z,101767.25
2023-04-08T11:47:54.233Z,101763.88
2023-04-08T11:50:26.990Z,101770.91
2023-04-08T11:53:03.227Z,101783.31
2023-04-08T11:55:42.860Z,101791.31
2023-04-08T11:58:13.690Z,101777.16
2023-04-08T12:00:49.716Z,101779.00
2023-04-08T12:03:19.457Z,101775.22
2023-04-08T12:05:51.363Z,101788.78
2023-04-08T12:08:21.517Z,101792.44
2023-04-08T12:10:53.123Z,101795.91
2023-04-08T12:13:24.919Z,101805.56
2023-04-08T12:15:55.191Z,101795.56
2023-04-08T12:18:26.436Z,101806.94
2023-04-08T12:20:55.901Z,101804.44
2023-04-08T12:23:31.039Z,101806.16
2023-04-08T12:26:04.975Z,101814.69
2023-04-08T12:28:37.427Z,101808.84
2023-04-08T12:31:09.499Z,101807.50
2023-04-08T12:33:40.366Z,101811.63
2023-04-08T12:36:13.373Z,101818.31
2023-04-08T12:38:43.483Z,101820.13
2023-04-08T12:41:15.253Z,101830.03
2023-04-08T12:43:48.979Z,101828.84
2023-04-08T12:46:21.250Z,101825.19
2023-04-08T12:49:02.957Z,101825.56
2023-04-08T12:51:42.380Z,101834.38
2023-04-08T12:54:11.520Z,101830.66
2023-04-08T12:56:42.509Z,101820.38
2023-04-08T12:59:11.946Z,101819.28
2023-04-08T13:01:43.855Z,101826.66
2023-04-08T13:04:15.319Z,101825.09
2023-04-08T13:06:47.461Z,101837.47
2023-04-08T13:09:19.175Z,101830.19
2023-04-08T13:11:51.064Z,101822.44
2023-04-08T13:14:22.275Z,101802.31
2023-04-08T13:16:53.112Z,101824.25
2023-04-08T13:19:22.588Z,101827.66
2023-04-08T13:21:52.904Z,101829.50
2023-04-08T13:24:23.202Z,101827.59
2023-04-08T13:26:57.545Z,101830.44
2023-04-08T13:29:38.189Z,101836.94
2023-04-08T13:32:11.328Z,101844.50
2023-04-08T13:34:45.166Z,101843.91
2023-04-08T13:37:15.231Z,101839.59
2023-04-08T13:39:47.186Z,101839.75
2023-04-08T13:42:20.062Z,101836.53
2023-04-08T13:44:51.348Z,101830.03
2023-04-08T13:47:22.764Z,101835.13
2023-04-08T13:49:53.654Z,101837.41
2023-04-08T13:52:23.715Z,101843.25
2023-04-08T13:54:54.374Z,101847.66
2023-04-08T13:57:25.943Z,101849.47
2023-04-08T13:59:54.971Z,101845.81
2023-04-08T14:02:30.787Z,101839.47
2023-04-08T14:05:06.727Z,101844.63
2023-04-08T14:07:43.881Z,101843.16
2023-04-08T14:10:21.831Z,101846.50
2023-04-08T14:12:52.359Z,101836.78
2023-04-08T14:15:22.169Z,101836.75
2023-04-08T14:17:52.986Z,101837.00
2023-04-08T14:20:22.512Z,101846.84
2023-04-08T14:22:52.670Z,101856.06
2023-04-08T14:25:22.060Z,101856.72
2023-04-08T14:27:57.938Z,101846.00
2023-04-08T14:30:33.803Z,101841.09
2023-04-08T14:33:05.423Z,101833.03
2023-04-08T14:35:39.620Z,101831.50
2023-04-08T14:38:13.082Z,101838.09
2023-04-08T14:40:45.878Z,101833.19
2023-04-08T14:43:18.997Z,101833.03
2023-04-08T14:45:53.320Z,101819.34
2023-04-08T14:48:31.307Z,101820.56
2023-04-08T14:51:02.968Z,101823.69
2023-04-08T14:53:34.892Z,101804.53
2023-04-08T14:56:06.658Z,101803.75
2023-04-08T14:58:37.188Z,101816.56
2023-04-08T15:01:07.654Z,101810.91
2023-04-08T15:03:41.360Z,101806.13
2023-04-08T15:06:18.504Z,101819.06
2023-04-08T15:08:52.811Z,101813.72
2023-04-08T15:11:26.238Z,101816.38
2023-04-08T15:13:54.801Z,101814.16
2023-04-08T15:16:41.073Z,101812.72
2023-04-08T15:19:10.369Z,101809.81
2023-04-08T15:21:38.845Z,101801.03
2023-04-08T15:24:08.492Z,101801.00
2023-04-08T15:26:40.437Z,101800.84
2023-04-08T15:29:09.646Z,101803.06
2023-04-08T15:31:38.329Z,101798.91
2023-04-08T15:34:07.275Z,101798.59
2023-04-08T15:36:37.921Z,101802.22
2023-04-08T15:39:07.080Z,101796.50
2023-04-08T15:41:36.489Z,101792.13
2023-04-08T15:44:05.706Z,101802.09
2023-04-08T15:46:36.783Z,101794.41
2023-04-08T15:49:08.397Z,101779.88
2023-04-08T15:51:37.641Z,101764.09
2023-04-08T15:54:06.590Z,101765.69
2023-04-08T15:56:35.137Z,101775.06
2023-04-08T15:59:04.400Z,101776.91
2023-04-08T16:01:34.011Z,101775.81
2023-04-08T16:04:02.929Z,101773.59
2023-04-08T16:06:32.587Z,101778.63
2023-04-08T16:09:02.230Z,101783.75
2023-04-08T16:11:31.404Z,101773.78
2023-04-08T16:14:00.771Z,101780.41
2023-04-08T16:16:30.339Z,101785.25
2023-04-08T16:18:59.144Z,101775.50
2023-04-08T16:21:29.219Z,101777.41
2023-04-08T16:23:59.305Z,101765.81
2023-04-08T16:26:31.291Z,101761.59
2023-04-08T16:29:01.292Z,101757.78
2023-04-08T16:34:00.986Z,101743.53
2023-04-08T16:36:30.736Z,101747.00
2023-04-08T16:39:00.701Z,101746.19
2023-04-08T16:41:30.727Z,101747.72
2023-04-08T16:44:00.463Z,101739.19
2023-04-08T16:46:29.298Z,101728.78
2023-04-08T16:48:58.620Z,101728.72
2023-04-08T16:51:29.105Z,101721.72
2023-04-08T16:54:01.559Z,101711.13
2023-04-08T16:56:31.170Z,101710.19
2023-04-08T16:59:01.372Z,101708.53
2023-04-08T17:01:32.456Z,101707.09
2023-04-08T17:04:01.927Z,101703.69
2023-04-08T17:06:50.466Z,101706.84
2023-04-08T17:09:20.344Z,101715.31
2023-04-08T17:11:49.474Z,101722.16
2023-04-08T17:14:18.292Z,101717.84
2023-04-08T17:16:47.043Z,101707.81
2023-04-08T17:19:17.063Z,101692.03
2023-04-08T17:21:47.040Z,101686.00
2023-04-08T17:24:16.558Z,101693.34
2023-04-08T17:26:45.610Z,101689.38
2023-04-08T17:29:14.510Z,101693.16
2023-04-08T17:31:44.873Z,101676.84
2023-04-08T17:34:13.897Z,101679.66
2023-04-08T17:36:42.862Z,101664.94
2023-04-08T17:39:12.620Z,101657.06
2023-04-08T17:41:44.015Z,101657.16
2023-04-08T17:44:14.473Z,101647.94
2023-04-08T17:46:44.669Z,101640.28
2023-04-08T17:49:14.772Z,101635.88
2023-04-08T17:51:44.349Z,101628.72
2023-04-08T17:54:13.001Z,101632.72
2023-04-08T17:56:44.659Z,101624.72
2023-04-08T17:59:14.130Z,101621.50
2023-04-08T18:01:43.365Z,101618.81
2023-04-08T18:04:13.910Z,101615.06
2023-04-08T18:06:44.233Z,101610.34
2023-04-08T18:09:12.780Z,101606.63
2023-04-08T18:11:42.319Z,101603.69
2023-04-08T18:14:10.965Z,101596.94
2023-04-08T18:16:40.872Z,101587.66
2023-04-08T18:19:10.530Z,101587.00
2023-04-08T18:21:38.754Z,101582.94
2023-04-08T18:24:09.303Z,101574.41
2023-04-08T18:26:38.462Z,101574.81
2023-04-08T18:29:08.726Z,101562.97
2023-04-08T18:31:37.936Z,101562.34
2023-04-08T18:34:06.533Z,101564.25
2023-04-08T18:36:35.258Z,101569.75
2023-04-08T18:39:06.470Z,101570.09
2023-04-08T18:41:34.786Z,101576.94
2023-04-08T18:44:04.985Z,101563.06
2023-04-08T18:46:34.277Z,101558.66
2023-04-08T18:49:03.305Z,101554.66
2023-04-08T18:51:32.559Z,101553.44
2023-04-08T18:54:01.807Z,101545.75
2023-04-08T18:56:32.588Z,101544.22
2023-04-08T18:59:04.590Z,101528.28
2023-04-08T19:01:33.914Z,101543.94
2023-04-08T19:04:03.257Z,101531.81
2023-04-08T19:06:36.561Z,101530.44
2023-04-08T19:09:06.912Z,101525.47
2023-04-08T19:11:38.174Z,101515.19
2023-04-08T19:14:08.750Z,101512.84
2023-04-08T19:16:39.409Z,101507.81
2023-04-08T19:19:10.622Z,101509.63
2023-04-08T19:21:39.429Z,101508.56
2023-04-08T19:24:09.907Z,101520.81
2023-04-08T19:26:38.618Z,101512.88
2023-04-08T19:29:10.638Z,101505.94
2023-04-08T19:31:42.284Z,101511.38
2023-04-08T19:34:11.420Z,101505.38
2023-04-08T19:36:40.761Z,101509.03
2023-04-08T19:39:10.175Z,101502.81
2023-04-08T19:41:38.733Z,101495.59
2023-04-08T19:44:08.800Z,101493.88
2023-04-08T19:46:38.121Z,101495.00
2023-04-08T19:49:07.136Z,101492.94
2023-04-08T19:51:38.471Z,101486.91
2023-04-08T19:54:08.947Z,101481.63
2023-04-08T19:56:38.193Z,101480.56
2023-04-08T19:59:07.247Z,101479.59
2023-04-08T20:01:37.525Z,101485.16
2023-04-08T20:04:07.010Z,101480.06
2023-04-08T20:06:36.607Z,101480.66
2023-04-08T20:09:06.029Z,101477.13
2023-04-08T20:11:35.353Z,101471.97
2023-04-08T20:14:06.572Z,101473.50
2023-04-08T20:16:35.184Z,101478.44
2023-04-08T20:19:04.991Z,101478.50
2023-04-08T20:21:34.316Z,101472.09
2023-04-08T20:24:03.341Z,101474.47
2023-04-08T20:26:32.781Z,101464.00
2023-04-08T20:29:02.754Z,101464.13
2023-04-08T20:31:32.998Z,101465.34
2023-04-08T20:34:04.612Z,101461.97
2023-04-08T20:36:34.768Z,101462.31
2023-04-08T20:39:04.283Z,101465.66
2023-04-08T20:41:33.960Z,101471.41
2023-04-08T20:44:06.680Z,101470.75
2023-04-08T20:46:36.915Z,101466.84
2023-04-08T20:49:06.424Z,101476.25
2023-04-08T20:51:35.393Z,101477.13
2023-04-08T20:54:05.878Z,101463.50
2023-04-08T20:56:34.838Z,101458.81
2023-04-08T20:59:04.500Z,101462.84
2023-04-08T21:01:32.924Z,101460.81
2023-04-08T21:04:03.750Z,101463.19
2023-04-08T21:06:33.109Z,101455.16
2023-04-08T21:09:02.031Z,101454.63
2023-04-08T21:11:32.629Z,101457.66
2023-04-08T21:14:03.166Z,101455.75
2023-04-08T21:16:33.270Z,101453.41
2023-04-08T21:19:02.854Z,101451.56
2023-04-08T21:21:32.736Z,101440.50
2023-04-08T21:24:01.777Z,101448.25
2023-04-08T21:26:32.815Z,101455.97
2023-04-08T21:29:02.181Z,101465.22
2023-04-08T21:31:31.666Z,101457.13
2023-04-08T21:34:01.842Z,101447.06
2023-04-08T21:36:32.464Z,101459.34
2023-04-08T21:39:01.804Z,101446.75
2023-04-08T21:41:31.807Z,101455.25
2023-04-08T21:44:01.797Z,101446.88
2023-04-08T21:46:32.281Z,101450.75
2023-04-08T21:49:01.789Z,101446.56
2023-04-08T21:51:32.016Z,101439.81
2023-04-08T21:54:02.661Z,101436.97
2023-04-08T21:56:32.958Z,101432.44
2023-04-08T21:59:02.236Z,101430.25
2023-04-08T22:01:32.773Z,101425.06
2023-04-08T22:04:02.061Z,101421.94
2023-04-08T22:06:33.040Z,101428.88
2023-04-08T22:09:02.489Z,101423.72
2023-04-08T22:11:33.789Z,101418.22
2023-04-08T22:14:03.465Z,101424.59
2023-04-08T22:16:34.065Z,101417.53
2023-04-08T22:19:03.353Z,101416.53
2023-04-08T22:21:33.137Z,101407.63
2023-04-08T22:24:02.197Z,101415.84
2023-04-08T22:26:32.926Z,101419.88
2023-04-08T22:29:02.596Z,101418.53
2023-04-08T22:31:32.907Z,101417.00
2023-04-08T22:34:02.580Z,101421.22
2023-04-08T22:36:33.138Z,101424.25
2023-04-08T22:39:02.416Z,101424.59
2023-04-08T22:41:32.807Z,101427.41
2023-04-08T22:44:02.499Z,101441.13
2023-04-08T22:46:34.273Z,101438.94
2023-04-08T22:49:03.073Z,101436.28
2023-04-08T22:51:33.060Z,101427.72
2023-04-08T22:54:02.715Z,101433.59
2023-04-08T22:56:32.723Z,101441.78
2023-04-08T22:59:02.494Z,101441.13
2023-04-08T23:01:33.024Z,101450.19
2023-04-08T23:04:02.475Z,101449.31
2023-04-08T23:06:33.997Z,101445.16
2023-04-08T23:09:03.862Z,101451.84
2023-04-08T23:11:33.165Z,101448.34
2023-04-08T23:14:14.125Z,101448.53
2023-04-08T23:16:53.828Z,101451.19
2023-04-08T23:19:26.982Z,101448.00
2023-04-08T23:22:07.980Z,101455.19
2023-04-08T23:24:42.853Z,101451.19
2023-04-08T23:27:15.522Z,101447.47
2023-04-08T23:29:51.943Z,101442.22
2023-04-08T23:32:40.064Z,101434.69
2023-04-08T23:35:30.098Z,101436.06
2023-04-08T23:38:02.835Z,101431.84
2023-04-08T23:40:32.707Z,101426.09
2023-04-08T23:43:04.631Z,101420.22
2023-04-08T23:45:33.740Z,101414.94
2023-04-08T23:48:03.126Z,101420.25
2023-04-08T23:50:32.810Z,101416.69
2023-04-08T23:53:02.677Z,101421.50
2023-04-08T23:55:31.885Z,101418.50
2023-04-08T23:58:17.875Z,101416.34
